DXXX/LFW METAR and TAF weather

Enter ICAO airport designator
Station Type Date Time Source
DXXX METAR 2018/12/12 05:00 UTC NOAA

DXXX 120500Z VRB02KT 9999 FEW011 27/25 Q1012 NOSIG


Station Type Date Time Source
DXXX Decoded METAR 2018/12/12 05:00 UTC NOAA

Lome, Togo (DXXX) 06-10N 001-15E 25M
Dec 12, 2018 - 12:00 AM EST / 2018.12.12 0500 UTC
Wind: Variable at 2 MPH (2 KT):0
Visibility: greater than 7 mile(s):0
Sky conditions: mostly clear
Temperature: 80 F (27 C)
Dew Point: 77 F (25 C)
Relative Humidity: 88%
Pressure (altimeter): 29.88 in. Hg (1012 hPa)
ob: DXXX 120500Z VRB02KT 9999 FEW011 27/25 Q1012 NOSIG
cycle: 5

Station Type Date Time Source
DXXX TAF 2018/12/12 06:27 UTC NOAA

TAF DXXX 120500Z 1206/1312 VRB03KT 9999 FEW010
TEMPO 1206/1209 3500 BR
BECMG 1210/1212 20010KT
BECMG 1222/1224 VRB03KT


Example: see airport list